Time;durP1;ratioP1;P1;durP2;ratioP2;P2;SDS_P1;SDS_P2;PMS_P1;PMS_P2;Temp;Humidity;BMP_temperature;BMP_pressure;BME280_temperature;BME280_humidity;BME280_pressure;Samples;Min_cycle;Max_cycle;Signal;HPM_P1;HPM_P2
2022/11/01 00:02:22;;;;;;;10.13;6.40;;;14.40;99.90;;;17.42;56.02;97564.91;4907795;29;20053;-56
2022/11/01 00:04:51;;;;;;;8.40;5.93;;;14.40;99.90;;;17.42;56.21;97560.34;4907387;29;20044;-55
2022/11/01 00:07:19;;;;;;;13.15;7.00;;;14.50;99.90;;;17.39;56.17;97563.47;4907412;29;20404;-55
2022/11/01 00:09:47;;;;;;;11.02;6.32;;;14.40;99.70;;;17.43;56.04;97558.53;4907736;29;20220;-51
2022/11/01 00:12:15;;;;;;;9.23;5.93;;;14.50;99.80;;;17.44;55.98;97558.28;4907543;29;20061;-57
2022/11/01 00:14:43;;;;;;;11.63;7.03;;;14.50;99.50;;;17.48;55.71;97559.53;4907292;29;20063;-55
2022/11/01 00:17:12;;;;;;;10.38;6.25;;;14.50;99.10;;;17.47;55.79;97546.31;4907251;29;20052;-56
2022/11/01 00:19:40;;;;;;;12.82;7.15;;;14.60;99.00;;;17.48;55.84;97546.06;4907351;29;20052;-53
2022/11/01 00:22:08;;;;;;;8.65;6.28;;;14.60;99.00;;;17.47;55.63;97543.59;4907057;29;20062;-54
2022/11/01 00:24:36;;;;;;;9.32;6.00;;;14.50;98.70;;;17.52;55.45;97543.78;4907085;29;20044;-56
2022/11/01 00:27:04;;;;;;;10.35;5.97;;;14.50;98.60;;;17.52;55.55;97539.25;4911304;29;20330;-56
2022/11/01 00:29:32;;;;;;;11.27;6.00;;;14.60;98.20;;;17.55;55.26;97537.19;4925089;29;20221;-52
2022/11/01 00:32:00;;;;;;;13.27;6.93;;;14.50;98.20;;;17.52;55.33;97533.88;4926081;29;20062;-56
2022/11/01 00:34:28;;;;;;;9.63;6.63;;;14.50;98.10;;;17.54;55.33;97533.66;4912954;29;20052;-56
2022/11/01 00:36:56;;;;;;;10.05;6.75;;;14.50;97.70;;;17.52;55.15;97531.19;4902839;29;20063;-56
2022/11/01 00:39:25;;;;;;;9.25;6.38;;;14.50;97.60;;;17.53;55.20;97534.69;4888362;29;20060;-55
2022/11/01 00:41:58;;;;;;;7.45;6.28;;;14.50;97.80;;;17.50;55.09;97530.53;4888325;29;20052;-56
2022/11/01 00:44:26;;;;;;;11.07;6.07;;;14.50;97.80;;;17.49;55.20;97536.16;4888064;29;20045;-56
2022/11/01 00:46:54;;;;;;;10.48;6.78;;;14.40;97.60;;;17.48;55.20;97532.63;4888312;29;20055;-53
2022/11/01 00:49:22;;;;;;;14.65;5.97;;;14.50;97.70;;;17.49;55.16;97530.78;4888376;29;20059;-54
2022/11/01 00:51:51;;;;;;;13.00;6.05;;;14.50;97.50;;;17.49;55.11;97531.59;4889084;29;20056;-55
2022/11/01 00:54:19;;;;;;;10.27;6.10;;;14.50;97.10;;;17.48;55.11;97543.38;4887746;29;20064;-56
2022/11/01 00:56:47;;;;;;;9.63;6.35;;;14.50;96.70;;;17.44;55.11;97539.44;4888151;29;20075;-55
2022/11/01 00:59:15;;;;;;;12.50;7.05;;;14.50;96.60;;;17.45;54.93;97545.69;4887817;29;20049;-54
2022/11/01 01:01:43;;;;;;;9.40;5.95;;;14.50;96.70;;;17.46;55.08;97545.44;4897810;29;20057;-56
2022/11/01 01:04:11;;;;;;;12.70;5.43;;;14.60;96.40;;;17.49;54.90;97549.59;4906393;29;20051;-56
2022/11/01 01:06:39;;;;;;;10.93;5.80;;;14.60;96.10;;;17.51;54.92;97545.66;4907084;29;20049;-55
2022/11/01 01:09:10;;;;;;;10.07;5.45;;;14.60;96.20;;;17.52;54.77;97541.09;4908267;29;20066;-55
2022/11/01 01:11:38;;;;;;;13.73;5.88;;;14.60;95.90;;;17.52;54.88;97539.25;4896832;29;20064;-55
2022/11/01 01:14:06;;;;;;;9.73;5.80;;;14.60;95.70;;;17.53;54.63;97540.09;4910299;29;20373;-56
2022/11/01 01:16:34;;;;;;;7.72;5.15;;;14.60;95.70;;;17.47;54.60;97543.59;4913183;29;20227;-55
2022/11/01 01:19:02;;;;;;;7.35;4.63;;;14.50;95.70;;;17.48;54.66;97529.09;4912912;29;20350;-55
2022/11/01 01:21:31;;;;;;;11.88;6.05;;;14.60;95.60;;;17.52;54.55;97535.72;4913125;29;20048;-56
2022/11/01 01:23:59;;;;;;;7.45;4.68;;;14.60;95.30;;;17.54;54.45;97539.03;4912585;29;20056;-56
2022/11/01 01:26:27;;;;;;;9.25;5.65;;;14.60;94.70;;;17.53;54.38;97534.69;4913224;29;20053;-56
2022/11/01 01:28:56;;;;;;;8.13;4.32;;;14.60;94.60;;;17.52;54.22;97535.72;4930068;29;20054;-53
2022/11/01 01:31:24;;;;;;;8.05;5.40;;;14.50;94.30;;;17.55;54.23;97535.31;4931923;29;20052;-53
2022/11/01 01:33:52;;;;;;;8.27;3.90;;;14.60;94.00;;;17.57;54.07;97533.25;4927809;29;20054;-56
2022/11/01 01:36:20;;;;;;;6.28;4.40;;;14.60;93.80;;;17.61;53.96;97528.28;4896169;29;20361;-57
2022/11/01 01:38:51;;;;;;;7.80;4.90;;;14.70;93.60;;;17.65;54.07;97526.81;4917848;29;20052;-54
2022/11/01 01:44:50;;;;;;;9.55;4.85;;;14.70;93.10;;;17.67;54.08;97528.25;4913151;29;20197;-53
2022/11/01 01:47:27;;;;;;;16.20;5.15;;;14.70;92.90;;;17.69;53.91;97534.25;4913120;29;20063;-51
2022/11/01 01:50:28;;;;;;;6.00;4.68;;;14.70;92.80;;;17.70;54.07;97529.72;4913249;29;20067;-55
2022/11/01 01:53:18;;;;;;;9.60;5.63;;;14.80;92.00;;;17.76;53.96;97533.41;4926765;29;20368;-53
2022/11/01 01:56:17;;;;;;;7.80;3.90;;;14.80;92.30;;;17.79;53.61;97538.38;4912368;29;20064;-52
2022/11/01 01:59:00;;;;;;;7.25;4.43;;;14.90;90.50;;;17.85;53.16;97538.41;4911294;29;20060;-55
2022/11/01 02:01:28;;;;;;;8.10;4.57;;;14.90;91.50;;;17.77;53.42;97532.38;4913023;29;20056;-53
2022/11/01 02:04:01;;;;;;;6.28;4.55;;;14.80;92.40;;;17.72;53.52;97541.09;4912417;29;20044;-53
2022/11/01 02:06:32;;;;;;;8.40;4.82;;;14.70;93.00;;;17.71;53.77;97544.81;4911569;29;20376;-51
2022/11/01 02:09:04;;;;;;;8.55;4.85;;;14.70;93.40;;;17.74;53.58;97547.09;4913317;29;20052;-53
2022/11/01 02:11:32;;;;;;;8.10;4.80;;;14.70;93.40;;;17.75;53.57;97543.34;4911581;29;20373;-54
2022/11/01 02:14:01;;;;;;;6.75;4.85;;;14.80;93.60;;;17.79;53.61;97541.06;4912256;29;20361;-54
2022/11/01 02:17:03;;;;;;;8.75;4.20;;;14.80;93.00;;;17.77;53.00;97532.38;4912464;29;20053;-53
2022/11/01 02:20:03;;;;;;;8.88;4.15;;;14.80;90.00;;;17.84;53.14;97554.78;4912623;29;20051;-56
2022/11/01 02:22:45;;;;;;;7.80;4.43;;;14.90;91.80;;;17.84;52.89;97550.22;4907801;29;20054;-56
2022/11/01 02:25:19;;;;;;;10.57;4.22;;;14.90;90.70;;;17.82;52.81;97538.81;4909136;29;20059;-56
2022/11/01 02:28:05;;;;;;;;;;;14.90;89.90;;;18.02;52.78;97543.34;4919155;29;20044;-55
2022/11/01 02:30:54;;;;;;;7.13;3.78;;;15.00;87.90;;;18.02;52.72;97546.03;4929301;29;19925;-56
2022/11/01 02:33:47;;;;;;;5.80;4.18;;;15.10;88.70;;;18.03;52.63;97545.84;4928099;29;20052;-56
2022/11/01 02:36:46;;;;;;;7.93;4.07;;;15.20;89.10;;;18.06;52.44;97531.09;4904801;29;20239;-54
2022/11/01 02:39:28;;;;;;;6.60;3.90;;;15.20;87.60;;;18.10;52.34;97519.69;4903634;29;20049;-55
2022/11/01 02:42:20;;;;;;;9.38;4.93;;;15.20;88.10;;;18.09;52.35;97514.53;4905030;29;20053;-55
2022/11/01 02:44:58;;;;;;;7.47;5.45;;;15.30;88.20;;;18.11;52.41;97515.16;4889773;29;20051;-55
2022/11/01 02:47:29;;;;;;;8.23;4.38;;;15.20;88.30;;;18.04;52.43;97535.88;4904371;29;20057;-55
2022/11/01 02:50:06;;;;;;;9.05;4.10;;;15.20;88.70;;;18.04;52.53;97543.97;4904387;29;20052;-56
2022/11/01 02:52:39;;;;;;;13.93;3.83;;;15.20;88.80;;;18.05;52.44;97541.06;4904446;29;20252;-54
2022/11/01 02:55:32;;;;;;;8.93;3.78;;;15.20;88.80;;;18.09;52.69;97498.38;4903584;29;20057;-54
2022/11/01 02:58:30;;;;;;;7.45;4.53;;;15.30;88.60;;;18.17;52.56;97508.09;4891058;29;20056;-54
2022/11/01 03:00:58;;;;;;;8.55;4.43;;;15.30;88.80;;;18.21;52.77;97549.72;4906897;29;20071;-55
2022/11/01 03:03:34;;;;;;;8.70;4.53;;;15.30;90.60;;;18.21;53.00;97557.81;4908704;29;20055;-55
2022/11/01 03:06:11;;;;;;;6.35;4.15;;;15.30;90.70;;;18.22;53.14;97575.59;4908751;29;20052;-54
2022/11/01 03:08:53;;;;;;;10.32;5.65;;;15.40;90.60;;;18.24;53.16;97562.75;4909524;29;20052;-56
2022/11/01 03:11:53;;;;;;;5.85;3.67;;;15.40;90.00;;;18.24;53.28;97560.06;4907537;29;20052;-56
2022/11/01 03:14:31;;;;;;;6.53;3.92;;;15.40;90.60;;;18.22;53.36;97551.34;4901341;29;20427;-55
2022/11/01 03:17:10;;;;;;;7.57;4.28;;;15.20;91.40;;;18.16;53.47;97552.22;4907779;29;20261;-55
2022/11/01 03:20:10;;;;;;;5.95;3.75;;;15.10;91.90;;;18.12;53.44;97554.50;4907386;29;20062;-55
2022/11/01 03:22:47;;;;;;;7.43;4.00;;;15.10;92.30;;;18.12;53.39;97543.72;4907660;29;20072;-55
2022/11/01 03:28:27;;;;;;;8.88;4.45;;;15.20;92.00;;;18.17;53.50;97567.34;4918075;29;20050;-56
2022/11/01 03:31:08;;;;;;;8.13;4.88;;;15.20;91.60;;;18.17;53.31;97564.66;4940966;29;20158;-55
2022/11/01 03:33:45;;;;;;;7.35;4.13;;;15.20;91.30;;;18.20;53.40;97565.03;4938792;29;20066;-56
2022/11/01 03:36:18;;;;;;;7.05;3.70;;;15.30;91.10;;;18.23;53.22;97569.19;4922502;29;20059;-54
2022/11/01 03:39:02;;;;;;;10.57;3.80;;;15.30;90.30;;;18.25;53.35;97580.59;4922560;29;20056;-56
2022/11/01 03:41:41;;;;;;;8.48;4.28;;;15.30;90.50;;;18.28;53.28;97585.53;4922055;29;20359;-54
2022/11/01 03:44:12;;;;;;;8.25;3.95;;;15.40;90.10;;;18.34;53.06;97595.50;4921621;29;20048;-55
2022/11/01 03:46:41;;;;;;;8.70;3.85;;;15.50;89.60;;;18.37;52.77;97597.75;4922391;29;20050;-53
2022/11/01 03:49:26;;;;;;;5.93;3.80;;;15.60;89.10;;;18.43;52.78;97601.47;4922465;29;20052;-55
2022/11/01 03:51:54;;;;;;;9.52;3.70;;;15.70;88.40;;;18.51;52.59;97612.00;4907905;29;20067;-55
2022/11/01 03:54:23;;;;;;;6.93;4.10;;;15.70;87.60;;;18.53;52.44;97603.72;4907439;29;20056;-56
2022/11/01 03:56:51;;;;;;;7.03;3.40;;;15.80;87.30;;;18.57;52.36;97610.31;4907925;29;20056;-55
2022/11/01 03:59:19;;;;;;;9.07;4.75;;;15.80;86.90;;;18.63;52.26;97612.16;4922493;29;20062;-55
2022/11/01 04:01:48;;;;;;;8.50;3.50;;;15.90;86.50;;;18.62;52.07;97619.44;4907491;29;20052;-54
2022/11/01 04:04:16;;;;;;;7.97;4.03;;;15.90;85.80;;;18.69;52.00;97608.63;4906103;29;20053;-55
2022/11/01 04:06:45;;;;;;;10.02;4.43;;;16.00;85.60;;;18.74;51.90;97624.16;4907633;29;20048;-55
2022/11/01 04:09:13;;;;;;;5.70;2.90;;;16.00;85.30;;;18.77;51.97;97624.56;4907722;29;20062;-55
2022/11/01 04:11:42;;;;;;;8.45;3.60;;;16.10;85.20;;;18.81;51.86;97604.25;4908193;29;20056;-55
2022/11/01 04:22:29;;;;;;;9.57;3.72;;;16.10;84.50;;;18.91;51.62;97629.94;4907457;29;20049;-55
2022/11/01 04:24:58;;;;;;;7.57;3.15;;;16.10;84.40;;;18.94;51.69;97629.50;4906869;29;20245;-53
2022/11/01 04:27:26;;;;;;;7.00;3.70;;;16.20;84.40;;;18.94;51.50;97638.44;4913996;29;20241;-54
2022/11/01 04:29:54;;;;;;;6.65;3.92;;;16.20;84.20;;;18.95;51.62;97633.84;4925431;29;20054;-54
2022/11/01 04:32:22;;;;;;;8.93;3.58;;;16.20;84.00;;;18.94;51.39;97649.22;4926283;29;20059;-55
2022/11/01 04:34:50;;;;;;;7.50;3.75;;;16.20;83.60;;;18.95;51.39;97653.56;4914393;29;20049;-56
2022/11/01 04:37:18;;;;;;;8.10;3.72;;;16.20;83.10;;;18.98;51.14;97660.38;4907302;29;20067;-55
2022/11/01 04:39:46;;;;;;;7.45;3.45;;;16.20;82.60;;;18.97;51.04;97672.22;4906994;29;20052;-55
2022/11/01 04:42:14;;;;;;;7.68;3.28;;;16.20;81.90;;;18.83;51.62;97680.38;4907218;29;20053;-56
2022/11/01 04:44:45;;;;;;;7.43;5.30;;;16.20;83.00;;;18.35;52.69;97680.69;4906088;29;20246;-53
2022/11/01 04:47:13;;;;;;;13.27;6.18;;;15.70;84.50;;;18.29;52.41;97671.56;4906155;29;20071;-55
2022/11/01 04:49:41;;;;;;;8.05;5.60;;;15.30;87.20;;;18.20;52.64;97667.41;4906968;29;20051;-56
2022/11/01 04:52:09;;;;;;;12.02;5.82;;;15.00;88.50;;;18.23;52.58;97674.28;4907202;29;20052;-54
2022/11/01 04:54:37;;;;;;;12.27;6.78;;;15.10;89.00;;;18.22;52.99;97684.22;4906438;29;20055;-55
2022/11/01 04:57:05;;;;;;;8.38;5.63;;;15.10;90.00;;;18.14;53.43;97689.00;4907040;29;20059;-54
2022/11/01 04:59:34;;;;;;;10.48;6.53;;;15.00;91.20;;;18.14;53.65;97691.69;4905719;29;20060;-52
2022/11/01 05:02:02;;;;;;;7.90;6.45;;;14.90;91.80;;;18.12;53.72;97693.75;4906939;29;20048;-56
2022/11/01 05:04:30;;;;;;;12.10;6.40;;;14.90;92.40;;;18.11;54.02;97698.34;4906410;29;20058;-51
2022/11/01 05:06:58;;;;;;;10.45;5.35;;;14.90;93.40;;;18.06;54.06;97693.53;4906777;29;20045;-54
2022/11/01 05:09:26;;;;;;;10.98;7.28;;;14.90;93.70;;;18.10;54.04;97694.78;4907271;29;20051;-56
2022/11/01 05:11:54;;;;;;;18.83;7.47;;;15.00;93.70;;;18.10;54.19;97700.16;4906736;29;20059;-56
2022/11/01 05:14:23;;;;;;;7.88;5.53;;;15.00;93.60;;;18.09;54.32;97685.06;4906546;29;20057;-54
2022/11/01 05:16:55;;;;;;;10.82;8.02;;;15.00;94.50;;;18.07;54.65;97697.09;4906772;29;20054;-55
2022/11/01 05:19:23;;;;;;;11.77;6.38;;;15.00;94.90;;;18.07;54.58;97713.25;4906827;29;20062;-54
2022/11/01 05:21:52;;;;;;;7.85;4.72;;;14.90;95.70;;;17.99;54.83;97724.22;4906510;29;20048;-55
2022/11/01 05:24:20;;;;;;;8.05;4.53;;;14.90;96.70;;;17.94;54.95;97721.31;4906338;29;20044;-54
2022/11/01 05:26:49;;;;;;;7.93;4.47;;;14.90;96.70;;;17.96;55.00;97717.38;4908179;29;20045;-53
2022/11/01 05:29:17;;;;;;;4.95;3.47;;;15.00;96.40;;;18.00;55.05;97717.81;4923934;29;20067;-55
2022/11/01 05:31:58;;;;;;;6.47;3.90;;;15.10;95.80;;;18.08;55.12;97723.78;4925525;29;20059;-55
2022/11/01 05:34:26;;;;;;;6.38;3.92;;;15.20;96.10;;;18.14;55.23;97732.91;4916612;29;20060;-55
2022/11/01 05:36:54;;;;;;;11.32;3.70;;;15.20;95.90;;;18.12;55.42;97732.31;4906571;29;20059;-56
2022/11/01 05:39:22;;;;;;;7.20;3.58;;;15.20;96.50;;;18.16;55.41;97721.94;4906587;29;20053;-56
2022/11/01 05:41:50;;;;;;;6.03;3.53;;;15.30;97.20;;;18.19;55.30;97708.88;4906409;29;20350;-55
2022/11/01 05:44:18;;;;;;;8.48;3.53;;;15.20;97.30;;;18.27;55.44;97686.28;4906192;29;20246;-54
2022/11/01 05:46:47;;;;;;;6.40;3.17;;;15.30;97.60;;;18.29;55.29;97663.47;4906353;29;20223;-53
2022/11/01 05:49:15;;;;;;;7.95;2.95;;;15.30;97.20;;;18.24;55.52;97679.47;4905197;29;20063;-53
2022/11/01 05:51:43;;;;;;;6.55;3.58;;;15.30;97.80;;;18.22;55.92;97708.47;4906398;29;20064;-55
2022/11/01 05:54:11;;;;;;;5.50;2.80;;;15.30;98.10;;;18.20;55.99;97723.19;4906140;29;20057;-55
2022/11/01 05:56:39;;;;;;;6.90;2.72;;;15.30;99.20;;;18.17;56.13;97719.03;4908274;29;20369;-55
2022/11/01 05:59:07;;;;;;;3.80;2.45;;;15.20;99.90;;;18.17;56.41;97727.13;4909704;29;20261;-55
2022/11/01 06:01:35;;;;;;;7.30;2.92;;;15.20;99.90;;;18.12;56.59;97726.91;4909648;29;20048;-56
2022/11/01 06:04:04;;;;;;;5.45;2.90;;;15.10;99.90;;;18.08;56.93;97731.06;4908409;29;20051;-56
2022/11/01 06:06:32;;;;;;;5.38;2.72;;;15.10;99.90;;;18.10;56.83;97727.09;4908499;29;20052;-52
2022/11/01 06:09:01;;;;;;;3.40;2.20;;;15.10;99.90;;;18.09;56.90;97720.09;4909764;29;20058;-55
2022/11/01 06:11:29;;;;;;;3.35;2.28;;;15.10;99.90;;;18.09;57.04;97738.94;4909795;29;20054;-53
2022/11/01 06:13:58;;;;;;;3.30;2.33;;;15.10;99.90;;;18.08;57.31;97739.13;4909224;29;20064;-55
2022/11/01 06:16:26;;;;;;;2.75;1.90;;;15.10;99.90;;;18.08;56.97;97747.22;4908682;29;20052;-56
2022/11/01 06:18:55;;;;;;;3.08;1.52;;;15.10;99.90;;;18.11;57.17;97746.81;4909090;29;20228;-52
2022/11/01 06:21:23;;;;;;;3.83;2.25;;;15.20;99.90;;;18.13;57.23;97743.94;4909742;29;20052;-57
2022/11/01 06:23:56;;;;;;;;;;;15.20;99.90;;;18.24;56.46;97745.97;4909664;29;20048;-56
2022/11/01 06:26:24;;;;;;;3.58;1.40;;;15.20;99.90;;;18.23;56.66;97752.41;4909045;29;19935;-55
2022/11/01 06:28:52;;;;;;;4.65;2.15;;;15.20;99.90;;;18.19;57.11;97753.88;4926537;29;20055;-57
2022/11/01 06:31:21;;;;;;;2.17;1.42;;;15.20;99.90;;;18.15;57.08;97750.75;4911889;29;20054;-54
2022/11/01 06:33:49;;;;;;;2.80;1.42;;;15.20;99.90;;;18.17;56.85;97769.41;4924464;29;20053;-55
2022/11/01 06:36:17;;;;;;;1.60;1.10;;;15.20;99.90;;;18.23;56.56;97764.00;4909411;29;20059;-57
2022/11/01 06:38:45;;;;;;;2.63;1.38;;;15.30;99.90;;;18.28;56.61;97761.53;4909217;29;20052;-57
2022/11/01 06:41:14;;;;;;;3.55;1.38;;;15.40;99.90;;;18.22;56.65;97775.00;4909389;29;20057;-56
2022/11/01 06:43:43;;;;;;;1.73;1.40;;;15.40;99.90;;;18.28;56.33;97766.94;4908945;29;20100;-54
2022/11/01 06:46:11;;;;;;;1.58;1.02;;;15.40;99.90;;;18.24;56.46;97768.38;4909027;29;20360;-56
2022/11/01 06:48:39;;;;;;;1.30;1.17;;;15.40;99.90;;;18.25;56.58;97774.59;4908969;29;20244;-57
2022/11/01 06:51:07;;;;;;;4.53;1.30;;;15.40;99.90;;;18.21;56.71;97767.97;4909120;29;20053;-53
2022/11/01 06:53:35;;;;;;;3.08;1.40;;;15.40;99.90;;;18.18;56.91;97771.88;4905663;29;20055;-57
2022/11/01 06:56:08;;;;;;;1.63;1.52;;;15.30;99.90;;;18.23;56.86;97777.50;4906933;29;20052;-56
2022/11/01 06:58:49;;;;;;;1.70;1.20;;;15.30;99.90;;;18.21;56.95;97781.44;4908387;29;20059;-57
2022/11/01 07:01:21;;;;;;;2.72;1.70;;;15.30;99.90;;;18.18;56.67;97784.53;4907582;29;20061;-55
2022/11/01 07:03:50;;;;;;;1.90;0.90;;;15.40;99.90;;;18.21;56.72;97800.28;4907483;29;20055;-56
2022/11/01 07:06:19;;;;;;;1.40;1.08;;;15.40;99.90;;;18.26;56.41;97805.88;4907469;29;20089;-57
2022/11/01 07:08:47;;;;;;;1.38;1.20;;;15.40;99.90;;;18.30;56.32;97815.22;4905639;29;20058;-56
2022/11/01 07:11:15;;;;;;;1.13;1.02;;;15.50;99.90;;;18.29;56.36;97809.00;4906455;29;20058;-57
2022/11/01 07:13:43;;;;;;;2.75;2.08;;;15.50;99.90;;;18.31;56.22;97806.09;4907548;29;20063;-57
2022/11/01 07:16:11;;;;;;;2.08;1.00;;;15.50;99.70;;;18.37;56.21;97812.53;4907336;29;20048;-56
2022/11/01 07:18:41;;;;;;;1.27;1.00;;;15.50;99.70;;;18.35;56.06;97820.00;4907507;29;20052;-57
2022/11/01 07:21:10;;;;;;;2.55;1.10;;;15.60;98.80;;;18.37;56.18;97809.84;4907407;29;20056;-56
2022/11/01 07:23:38;;;;;;;1.80;0.98;;;15.70;98.90;;;18.44;56.15;97814.19;4906584;29;20275;-56
2022/11/01 07:26:06;;;;;;;1.20;0.90;;;15.70;98.80;;;18.47;56.03;97815.63;4907583;29;20178;-56
2022/11/01 07:28:34;;;;;;;2.42;1.20;;;15.70;98.90;;;18.47;56.14;97821.84;4922760;29;20052;-54
2022/11/01 07:31:03;;;;;;;1.83;0.98;;;15.70;98.50;;;18.53;55.74;97813.97;4926622;29;20058;-55
2022/11/01 07:33:31;;;;;;;2.83;1.88;;;15.70;98.40;;;18.54;55.73;97823.72;4924564;29;20059;-56
2022/11/01 07:36:01;;;;;;;2.13;1.20;;;15.70;98.30;;;18.59;55.68;97815.84;4907456;29;20062;-55
2022/11/01 07:38:30;;;;;;;2.30;1.27;;;15.80;98.10;;;18.60;55.70;97815.63;4907174;29;20363;-57
2022/11/01 07:40:58;;;;;;;1.13;1.00;;;15.80;98.20;;;18.47;55.98;97813.75;4907271;29;20063;-57
2022/11/01 07:43:26;;;;;;;1.35;0.82;;;15.80;98.00;;;18.59;55.49;97824.78;4906286;29;20049;-57
2022/11/01 07:45:59;;;;;;;1.85;1.33;;;15.80;97.80;;;18.64;55.52;97821.44;4906403;29;20057;-56
2022/11/01 07:48:27;;;;;;;2.15;1.17;;;15.80;97.50;;;18.59;55.58;97834.69;4890652;29;20057;-57
2022/11/01 07:50:56;;;;;;;1.00;0.90;;;15.80;97.60;;;18.56;55.62;97843.22;4907212;29;20234;-57
2022/11/01 07:53:24;;;;;;;1.35;0.90;;;15.80;97.30;;;18.61;55.45;97843.41;4907291;29;20056;-57
2022/11/01 07:55:52;;;;;;;1.85;0.90;;;15.90;97.20;;;18.44;55.58;97854.63;4906344;29;20060;-57
2022/11/01 07:58:21;;;;;;;2.53;1.45;;;15.90;96.00;;;18.63;55.21;97855.66;4907184;29;20048;-58
2022/11/01 08:00:49;;;;;;;2.60;0.93;;;16.00;95.90;;;18.70;55.13;97855.66;4906871;29;20056;-53
2022/11/01 08:03:19;;;;;;;0.80;0.80;;;16.10;95.50;;;18.80;55.08;97847.19;4906722;29;20243;-51
2022/11/01 08:05:47;;;;;;;0.85;0.70;;;16.10;94.40;;;18.81;54.94;97846.97;4906661;29;20381;-56
2022/11/01 08:08:16;;;;;;;1.60;0.82;;;16.20;95.00;;;18.85;54.80;97855.47;4905527;29;20059;-56
2022/11/01 08:10:45;;;;;;;2.45;0.93;;;16.20;95.10;;;18.89;55.05;97862.09;4905922;29;20342;-56
2022/11/01 08:13:17;;;;;;;0.80;0.80;;;16.20;95.20;;;18.83;55.36;97866.47;4905539;29;20254;-57
2022/11/01 08:15:47;;;;;;;1.25;0.90;;;16.20;95.90;;;18.82;54.83;97872.88;4906400;29;20062;-57
2022/11/01 08:18:20;;;;;;;1.90;1.15;;;16.10;95.00;;;18.74;55.05;97867.69;4905881;29;20071;-56
2022/11/01 08:20:49;;;;;;;1.67;0.95;;;16.10;94.70;;;18.68;55.16;97877.44;4906361;29;20068;-56
2022/11/01 08:23:17;;;;;;;1.55;1.25;;;16.20;94.00;;;18.61;54.66;97886.56;4905795;29;20056;-58
2022/11/01 08:25:46;;;;;;;1.50;1.05;;;16.10;92.80;;;18.55;54.08;97884.69;4906799;29;20049;-56
2022/11/01 08:28:17;;;;;;;1.38;0.90;;;16.10;89.30;;;18.69;53.52;97889.88;4920252;29;20054;-57
2022/11/01 08:30:48;;;;;;;1.27;1.10;;;16.10;89.70;;;18.72;52.96;97880.53;4926144;29;20059;-58
2022/11/01 08:33:16;;;;;;;1.25;0.93;;;16.10;88.50;;;18.77;52.59;97879.94;4926443;29;20052;-57
2022/11/01 08:35:44;;;;;;;1.33;0.90;;;16.10;88.20;;;18.81;52.46;97876.63;4907008;29;20053;-57
2022/11/01 08:38:18;;;;;;;2.45;0.95;;;16.10;86.80;;;18.81;52.26;97875.81;4906205;29;20048;-57
2022/11/01 08:40:47;;;;;;;2.83;1.50;;;16.10;87.10;;;18.78;52.08;97873.50;4906788;29;20084;-55
2022/11/01 08:43:15;;;;;;;3.33;1.23;;;16.20;87.00;;;18.87;51.81;97873.09;4907178;29;20052;-56
2022/11/01 08:45:44;;;;;;;3.15;1.20;;;16.20;86.20;;;18.87;51.58;97870.41;4906258;29;20062;-56
2022/11/01 08:48:12;;;;;;;2.80;1.33;;;16.20;86.00;;;18.93;51.05;97868.75;4890822;29;20418;-57
2022/11/01 08:50:40;;;;;;;1.50;1.00;;;16.30;83.50;;;18.92;50.93;97871.66;4890402;29;20059;-59
2022/11/01 08:53:13;;;;;;;6.63;1.40;;;16.30;84.00;;;18.91;50.62;97864.59;4906930;29;20048;-59
2022/11/01 08:55:41;;;;;;;2.70;1.23;;;16.30;82.90;;;18.93;50.76;97873.31;4890343;29;20062;-58
2022/11/01 08:58:10;;;;;;;4.75;1.65;;;16.40;81.80;;;19.02;50.41;97880.16;4906566;29;20060;-56
2022/11/01 09:00:38;;;;;;;2.00;1.20;;;16.40;82.70;;;18.78;50.27;97877.00;4890606;29;20388;-57
2022/11/01 09:03:07;;;;;;;4.13;1.13;;;16.30;80.60;;;18.64;50.52;97881.56;4906376;29;20212;-59
2022/11/01 09:05:35;;;;;;;2.60;2.08;;;16.20;82.40;;;18.80;50.67;97874.97;4905315;29;20059;-58
2022/11/01 09:08:04;;;;;;;5.65;1.73;;;16.20;82.80;;;18.86;50.66;97874.16;4906736;29;20238;-59
2022/11/01 09:10:33;;;;;;;4.50;1.80;;;16.20;84.20;;;18.88;50.95;97882.88;4906978;29;20044;-59
2022/11/01 09:13:01;;;;;;;6.95;1.33;;;16.30;83.50;;;19.00;51.18;97874.97;4906780;29;20056;-59
2022/11/01 09:15:30;;;;;;;1.40;1.30;;;16.40;83.60;;;19.06;50.78;97889.50;4890285;29;20048;-59
2022/11/01 09:17:58;;;;;;;2.35;1.50;;;16.50;82.20;;;19.28;50.74;97898.97;4907012;29;20057;-58
2022/11/01 09:20:27;;;;;;;2.03;1.40;;;16.70;83.00;;;19.27;50.89;97899.22;4906229;29;20059;-59
2022/11/01 09:22:55;;;;;;;1.55;1.38;;;16.80;82.30;;;19.39;50.69;97889.41;4906532;29;20060;-57
2022/11/01 09:25:24;;;;;;;3.63;1.98;;;17.00;81.70;;;19.52;50.30;97896.63;4906123;29;20373;-58
2022/11/01 09:27:56;;;;;;;2.05;1.80;;;17.00;81.40;;;19.57;50.34;97896.03;4916532;29;20203;-58
2022/11/01 09:30:25;;;;;;;3.00;1.48;;;17.10;81.10;;;19.57;50.02;97901.41;4925786;29;20059;-58
2022/11/01 09:32:53;;;;;;;2.08;1.52;;;17.10;80.20;;;19.66;50.03;97900.97;4912156;29;20273;-58
2022/11/01 09:35:22;;;;;;;5.03;1.50;;;17.20;79.70;;;19.70;49.88;97904.06;4912472;29;20049;-57
2022/11/01 09:37:58;;;;;;;1.65;1.20;;;17.30;79.80;;;19.82;49.72;97905.09;4909695;29;20044;-58
2022/11/01 09:40:34;;;;;;;2.83;1.20;;;17.30;78.90;;;19.83;49.92;97904.06;4910210;29;20244;-58
2022/11/01 09:43:08;;;;;;;3.70;1.20;;;17.40;79.00;;;19.93;49.71;97905.44;4909399;29;20053;-58
2022/11/01 09:45:36;;;;;;;;;;;17.50;78.50;;;19.86;49.24;97910.91;4910708;29;20052;-58
2022/11/01 09:48:06;;;;;;;2.70;1.30;;;17.40;76.60;;;19.96;49.17;97905.03;4893813;29;19919;-56
2022/11/01 09:50:36;;;;;;;2.53;1.08;;;17.40;77.80;;;20.04;49.21;97907.47;4909140;29;20074;-57
2022/11/01 09:53:16;;;;;;;2.63;1.25;;;17.50;78.20;;;20.15;49.20;97922.19;4910030;29;20052;-58
2022/11/01 09:56:21;;;;;;;2.10;1.73;;;17.60;78.20;;;20.19;49.08;97921.53;4893900;29;20063;-58
2022/11/01 09:59:03;;;;;;;2.47;1.10;;;17.60;75.80;;;20.30;48.88;97924.59;4900823;29;20068;-57
2022/11/01 10:02:06;;;;;;;5.10;1.40;;;17.70;77.20;;;20.04;48.14;97918.28;4910164;29;20247;-58
2022/11/01 10:05:24;;;;;;;4.20;1.48;;;17.70;75.00;;;19.84;48.19;97926.50;4909520;29;20045;-58
2022/11/01 10:08:14;;;;;;;9.10;5.28;;;17.60;73.60;;;19.98;48.69;97927.25;4908993;29;20233;-58
2022/11/01 10:11:04;;;;;;;2.60;1.40;;;17.60;74.50;;;19.72;47.65;97930.91;4908958;29;20062;-58
2022/11/01 10:14:03;;;;;;;3.13;1.55;;;17.50;72.30;;;19.43;48.26;97922.22;4908264;29;20049;-57
2022/11/01 10:16:42;;;;;;;3.58;1.42;;;17.40;71.90;;;19.77;48.67;97925.69;4908958;29;20062;-57
2022/11/01 10:19:22;;;;;;;2.88;1.48;;;17.40;73.60;;;19.88;47.77;97925.03;4909468;29;20056;-58
2022/11/01 10:21:59;;;;;;;2.88;1.58;;;17.40;72.30;;;19.40;48.81;97928.03;4909798;29;20059;-56
2022/11/01 10:24:39;;;;;;;3.35;1.88;;;17.30;72.90;;;19.65;48.27;97931.69;4908954;29;20296;-57
2022/11/01 10:27:41;;;;;;;4.68;1.30;;;17.40;72.70;;;19.45;48.52;97937.16;4913657;29;20054;-58
2022/11/01 10:30:16;;;;;;;2.40;1.30;;;17.40;72.00;;;19.48;48.50;97927.81;4926881;29;20063;-58
2022/11/01 10:32:51;;;;;;;1.92;1.25;;;17.40;72.50;;;19.83;48.16;97933.78;4927450;29;20219;-59
2022/11/01 10:35:29;;;;;;;3.10;1.55;;;17.40;73.30;;;19.74;47.50;97926.13;4907875;29;20059;-59
2022/11/01 10:38:35;;;;;;;4.65;1.20;;;17.50;71.50;;;20.05;47.59;97933.47;4888943;29;20063;-57
2022/11/01 10:41:42;;;;;;;2.30;1.52;;;17.50;72.70;;;20.14;47.66;97928.63;4889604;29;20063;-58
2022/11/01 10:44:27;;;;;;;3.35;1.70;;;17.60;71.80;;;19.73;48.33;97919.03;4890166;29;20055;-59
2022/11/01 10:46:58;;;;;;;3.92;2.53;;;17.50;72.20;;;19.74;48.22;97923.41;4889292;29;20049;-58
2022/11/01 10:49:38;;;;;;;2.97;1.75;;;17.50;72.40;;;19.95;47.86;97923.13;4890879;29;20059;-58
2022/11/01 10:52:47;;;;;;;4.50;2.05;;;17.50;72.50;;;19.81;47.44;97929.59;4889414;29;20061;-58
2022/11/01 10:55:38;;;;;;;3.30;1.35;;;17.50;72.00;;;19.62;46.88;97934.03;4889027;29;20049;-58
2022/11/01 10:58:32;;;;;;;4.38;1.92;;;17.40;69.90;;;19.58;47.21;97922.81;4889146;29;20385;-58